createdAt,value
2023-06-19T00:00:37.608Z,20.30
2023-06-19T00:03:05.246Z,20.50
2023-06-19T00:05:33.567Z,20.80
2023-06-19T00:08:01.130Z,20.70
2023-06-19T00:10:28.708Z,20.70
2023-06-19T00:12:56.617Z,20.50
2023-06-19T00:15:25.002Z,20.30
2023-06-19T00:17:52.637Z,20.30
2023-06-19T00:20:21.177Z,20.10
2023-06-19T00:22:49.376Z,20.10
2023-06-19T00:25:16.956Z,20.00
2023-06-19T00:27:44.712Z,20.00
2023-06-19T00:30:12.337Z,20.10
2023-06-19T00:32:39.932Z,20.30
2023-06-19T00:35:07.699Z,20.40
2023-06-19T00:37:35.276Z,20.30
2023-06-19T00:40:03.634Z,20.30
2023-06-19T00:42:31.229Z,20.30
2023-06-19T00:44:59.728Z,20.00
2023-06-19T00:47:28.063Z,19.90
2023-06-19T00:49:55.682Z,19.90
2023-06-19T00:52:23.230Z,19.80
2023-06-19T00:54:50.785Z,19.80
2023-06-19T00:57:18.397Z,19.70
2023-06-19T00:59:45.972Z,19.60
2023-06-19T01:02:14.433Z,19.50
2023-06-19T01:04:42.012Z,19.50
2023-06-19T01:07:12.212Z,19.50
2023-06-19T01:09:39.825Z,19.40
2023-06-19T01:12:07.583Z,19.40
2023-06-19T01:14:37.974Z,19.60
2023-06-19T01:17:05.571Z,19.60
2023-06-19T01:19:33.149Z,19.50
2023-06-19T01:22:00.717Z,19.60
2023-06-19T01:24:28.345Z,19.60
2023-06-19T01:26:56.061Z,19.50
2023-06-19T01:29:23.639Z,19.40
2023-06-19T01:31:51.186Z,19.60
2023-06-19T01:34:18.802Z,19.50
2023-06-19T01:36:46.369Z,19.60
2023-06-19T01:39:13.944Z,19.80
2023-06-19T01:41:41.557Z,19.60
2023-06-19T01:44:09.920Z,19.40
2023-06-19T01:46:38.338Z,19.30
2023-06-19T01:49:09.055Z,19.30
2023-06-19T01:51:36.628Z,19.20
2023-06-19T01:54:04.194Z,19.20
2023-06-19T01:56:31.804Z,19.00
2023-06-19T01:58:59.393Z,19.00
2023-06-19T02:01:27.724Z,18.90
2023-06-19T02:03:55.392Z,18.90
2023-06-19T02:06:22.947Z,18.90
2023-06-19T02:08:50.495Z,18.80
2023-06-19T02:11:18.086Z,18.80
2023-06-19T02:13:46.426Z,18.80
2023-06-19T02:16:14.030Z,18.80
2023-06-19T02:18:41.645Z,18.70
2023-06-19T02:21:09.261Z,18.70
2023-06-19T02:23:36.812Z,18.70
2023-06-19T02:26:05.224Z,18.70
2023-06-19T02:28:33.539Z,18.70
2023-06-19T02:31:01.143Z,18.70
2023-06-19T02:33:29.564Z,18.70
2023-06-19T02:35:57.104Z,18.70
2023-06-19T02:38:24.682Z,18.70
2023-06-19T02:40:52.307Z,18.70
2023-06-19T02:43:19.881Z,18.70
2023-06-19T02:45:47.470Z,19.00
2023-06-19T02:48:15.092Z,19.00
2023-06-19T02:50:42.663Z,19.00
2023-06-19T02:53:10.265Z,19.20
2023-06-19T02:55:37.858Z,19.20
2023-06-19T02:58:05.460Z,19.10
2023-06-19T03:00:33.031Z,19.10
2023-06-19T03:03:00.757Z,19.10
2023-06-19T03:05:30.892Z,19.10
2023-06-19T03:07:58.467Z,19.30
2023-06-19T03:10:26.315Z,19.30
2023-06-19T03:12:53.676Z,19.30
2023-06-19T03:15:21.240Z,19.20
2023-06-19T03:17:48.899Z,19.20
2023-06-19T03:20:16.429Z,19.20
2023-06-19T03:22:44.018Z,19.30
2023-06-19T03:25:11.645Z,19.20
2023-06-19T03:27:39.236Z,19.30
2023-06-19T03:30:09.708Z,19.30
2023-06-19T03:32:37.314Z,19.30
2023-06-19T03:35:04.889Z,19.30
2023-06-19T03:37:32.471Z,19.30
2023-06-19T03:40:00.147Z,19.40
2023-06-19T03:42:27.658Z,19.40
2023-06-19T03:44:55.244Z,19.40
2023-06-19T03:47:22.933Z,19.40
2023-06-19T03:49:50.481Z,19.40
2023-06-19T03:52:18.060Z,19.70
2023-06-19T03:54:45.684Z,19.70
2023-06-19T03:57:13.266Z,19.90
2023-06-19T03:59:41.608Z,19.80
2023-06-19T04:02:09.232Z,19.80
2023-06-19T04:04:36.808Z,19.80
2023-06-19T04:07:04.380Z,19.80
2023-06-19T04:09:32.045Z,19.70
2023-06-19T04:11:59.618Z,19.70
2023-06-19T04:14:27.201Z,19.80
2023-06-19T04:16:54.817Z,19.80
2023-06-19T04:19:22.387Z,20.00
2023-06-19T04:21:49.959Z,19.90
2023-06-19T04:24:17.658Z,19.90
2023-06-19T04:26:45.174Z,19.90
2023-06-19T04:29:12.759Z,19.80
2023-06-19T04:31:42.323Z,19.80
2023-06-19T04:34:09.493Z,19.80
2023-06-19T04:36:37.073Z,19.80
2023-06-19T04:39:05.566Z,19.80
2023-06-19T04:41:33.922Z,19.80
2023-06-19T04:44:01.504Z,19.80
2023-06-19T04:46:29.921Z,20.10
2023-06-19T04:48:58.231Z,20.10
2023-06-19T04:51:25.807Z,20.10
2023-06-19T04:53:54.219Z,20.30
2023-06-19T04:56:21.792Z,20.30
2023-06-19T04:58:49.378Z,20.30
2023-06-19T05:01:17.193Z,20.30
2023-06-19T05:03:44.731Z,20.30
2023-06-19T05:06:12.305Z,20.30
2023-06-19T05:08:40.678Z,20.50
2023-06-19T05:11:09.038Z,20.50
2023-06-19T05:13:36.618Z,20.50
2023-06-19T05:16:05.153Z,20.70
2023-06-19T05:18:32.665Z,20.70
2023-06-19T05:21:00.261Z,20.70
2023-06-19T05:23:27.870Z,20.90
2023-06-19T05:25:56.283Z,20.80
2023-06-19T05:28:23.788Z,20.70
2023-06-19T05:30:51.455Z,20.70
2023-06-19T05:33:18.982Z,20.70
2023-06-19T05:35:46.550Z,20.90
2023-06-19T05:38:14.173Z,20.90
2023-06-19T05:40:41.788Z,20.80
2023-06-19T05:43:09.540Z,20.80
2023-06-19T05:45:37.210Z,20.70
2023-06-19T05:48:04.855Z,20.70
2023-06-19T05:50:32.363Z,20.70
2023-06-19T05:53:00.794Z,20.90
2023-06-19T05:55:31.446Z,20.80
2023-06-19T05:57:58.999Z,20.90
2023-06-19T06:00:26.768Z,20.80
2023-06-19T06:02:54.246Z,20.80
2023-06-19T06:05:21.834Z,20.80
2023-06-19T06:07:50.297Z,20.90
2023-06-19T06:10:17.774Z,20.90
2023-06-19T06:12:45.338Z,21.00
2023-06-19T06:15:13.026Z,21.00
2023-06-19T06:17:40.695Z,21.10
2023-06-19T06:20:14.152Z,21.10
2023-06-19T06:22:41.757Z,21.10
2023-06-19T06:25:11.477Z,21.10
2023-06-19T06:27:37.804Z,21.10
2023-06-19T06:30:05.690Z,21.10
2023-06-19T06:32:34.094Z,21.40
2023-06-19T06:35:01.604Z,21.40
2023-06-19T06:37:29.236Z,21.50
2023-06-19T06:39:56.820Z,21.50
2023-06-19T06:42:24.387Z,21.90
2023-06-19T06:44:52.027Z,22.00
2023-06-19T06:47:19.593Z,22.30
2023-06-19T06:49:47.179Z,22.30
2023-06-19T06:52:15.604Z,22.40
2023-06-19T06:54:43.181Z,22.40
2023-06-19T06:57:10.774Z,22.40
2023-06-19T06:59:39.195Z,22.50
2023-06-19T07:02:06.838Z,22.40
2023-06-19T07:04:34.402Z,22.40
2023-06-19T07:07:01.959Z,22.30
2023-06-19T07:09:29.536Z,22.30
2023-06-19T07:11:57.100Z,22.50
2023-06-19T07:14:24.743Z,22.50
2023-06-19T07:16:52.391Z,22.40
2023-06-19T07:19:19.925Z,22.40
2023-06-19T07:21:47.522Z,22.40
2023-06-19T07:24:15.147Z,22.40
2023-06-19T07:26:42.684Z,22.60
2023-06-19T07:29:10.304Z,22.60
2023-06-19T07:31:37.880Z,22.60
2023-06-19T07:34:05.495Z,22.60
2023-06-19T07:36:33.135Z,22.60
2023-06-19T07:39:00.714Z,22.60
2023-06-19T07:41:28.285Z,22.60
2023-06-19T07:43:56.668Z,22.70
2023-06-19T07:46:25.069Z,22.80
2023-06-19T07:48:52.604Z,22.70
2023-06-19T07:51:21.100Z,23.20
2023-06-19T07:53:48.636Z,23.20
2023-06-19T07:56:17.003Z,23.10
2023-06-19T07:58:44.631Z,23.10
2023-06-19T08:01:12.205Z,23.10
2023-06-19T08:03:39.965Z,23.30
2023-06-19T08:06:07.456Z,23.30
2023-06-19T08:08:34.966Z,23.30
2023-06-19T08:11:02.542Z,23.30
2023-06-19T08:13:30.164Z,23.40
2023-06-19T08:15:57.735Z,23.50
2023-06-19T08:18:25.321Z,23.50
2023-06-19T08:20:52.950Z,23.50
2023-06-19T08:23:20.530Z,23.50
2023-06-19T08:25:48.104Z,23.50
2023-06-19T08:28:15.898Z,23.50
2023-06-19T08:30:43.484Z,23.50
2023-06-19T08:33:11.902Z,23.50
2023-06-19T08:35:39.433Z,23.50
2023-06-19T08:38:07.016Z,23.50
2023-06-19T08:40:34.595Z,23.60
2023-06-19T08:43:02.367Z,23.70
2023-06-19T08:45:29.945Z,23.80
2023-06-19T08:48:01.050Z,24.00
2023-06-19T08:50:28.647Z,23.90
2023-06-19T08:52:56.183Z,24.00
2023-06-19T08:55:23.780Z,24.00
2023-06-19T08:57:52.141Z,24.10
2023-06-19T09:00:27.207Z,24.10
2023-06-19T09:05:21.761Z,24.20
2023-06-19T09:07:58.419Z,24.40
2023-06-19T09:10:26.194Z,24.40
2023-06-19T09:12:59.533Z,24.50
2023-06-19T09:15:30.838Z,24.40
2023-06-19T09:18:04.532Z,24.40
2023-06-19T09:20:32.826Z,24.30
2023-06-19T09:23:00.401Z,24.30
2023-06-19T09:25:28.775Z,24.20
2023-06-19T09:27:57.160Z,24.20
2023-06-19T09:30:24.904Z,24.30
2023-06-19T09:32:52.373Z,24.30
2023-06-19T09:35:19.908Z,24.60
2023-06-19T09:37:47.473Z,24.70
2023-06-19T09:40:15.099Z,24.70
2023-06-19T09:42:42.689Z,25.00
2023-06-19T09:45:10.310Z,25.20
2023-06-19T09:47:49.972Z,25.20
2023-06-19T09:50:14.765Z,25.20
2023-06-19T09:52:42.351Z,25.20
2023-06-19T09:55:10.219Z,25.30
2023-06-19T09:57:37.782Z,25.30
2023-06-19T10:00:08.091Z,25.40
2023-06-19T10:02:35.764Z,25.70
2023-06-19T10:05:03.290Z,25.80
2023-06-19T10:07:36.816Z,26.00
2023-06-19T10:10:04.530Z,26.10
2023-06-19T10:12:44.792Z,26.00
2023-06-19T10:15:17.887Z,26.00
2023-06-19T10:17:46.274Z,25.90
2023-06-19T10:20:25.689Z,25.90
2023-06-19T10:23:05.319Z,26.00
2023-06-19T10:25:35.503Z,26.00
2023-06-19T10:28:03.081Z,26.10
2023-06-19T10:30:31.584Z,26.50
2023-06-19T10:32:59.111Z,26.50
2023-06-19T10:35:26.640Z,26.70
2023-06-19T10:37:54.216Z,26.80
2023-06-19T10:40:22.189Z,26.90
2023-06-19T10:42:49.436Z,26.90
2023-06-19T10:45:17.017Z,27.00
2023-06-19T10:47:44.679Z,27.00
2023-06-19T10:50:12.234Z,27.00
2023-06-19T10:52:42.221Z,27.00
2023-06-19T10:55:09.944Z,27.10
2023-06-19T10:57:37.508Z,27.30
2023-06-19T11:00:12.024Z,27.20
2023-06-19T11:02:39.776Z,27.10
2023-06-19T11:05:07.313Z,26.90
2023-06-19T11:07:34.971Z,26.80
2023-06-19T11:10:02.565Z,26.90
2023-06-19T11:12:30.167Z,26.90
2023-06-19T11:14:57.767Z,27.00
2023-06-19T11:17:25.402Z,27.00
2023-06-19T11:19:52.928Z,27.00
2023-06-19T11:22:20.507Z,27.10
2023-06-19T11:24:48.119Z,27.10
2023-06-19T11:27:18.469Z,27.10
2023-06-19T11:29:46.033Z,27.10
2023-06-19T11:32:16.572Z,27.10
2023-06-19T11:34:44.181Z,27.10
2023-06-19T11:37:17.496Z,27.00
2023-06-19T11:39:45.124Z,27.10
2023-06-19T11:42:13.484Z,27.10
2023-06-19T11:44:59.209Z,27.10
2023-06-19T11:47:27.643Z,27.40
2023-06-19T11:49:55.101Z,27.40
2023-06-19T11:52:22.735Z,27.50
2023-06-19T11:54:50.303Z,27.60
2023-06-19T11:57:17.883Z,27.60
2023-06-19T11:59:45.512Z,27.70
2023-06-19T12:02:13.149Z,28.00
2023-06-19T12:04:40.844Z,28.10
2023-06-19T12:07:08.284Z,28.10
2023-06-19T12:09:35.858Z,28.20
2023-06-19T12:12:03.457Z,28.50
2023-06-19T12:14:31.070Z,28.60
2023-06-19T12:16:58.696Z,28.60
2023-06-19T12:19:26.238Z,28.60
2023-06-19T12:21:53.840Z,28.60
2023-06-19T12:24:21.504Z,28.60
2023-06-19T12:26:49.003Z,28.70
2023-06-19T12:29:16.616Z,28.80
2023-06-19T12:31:44.206Z,28.90
2023-06-19T12:34:28.685Z,29.10
2023-06-19T12:36:39.402Z,29.20
2023-06-19T12:39:06.991Z,29.20
2023-06-19T12:41:34.546Z,29.20
2023-06-19T12:44:02.177Z,29.20
2023-06-19T12:46:29.818Z,29.20
2023-06-19T12:48:57.326Z,29.20
2023-06-19T12:51:24.952Z,29.10
2023-06-19T12:53:52.533Z,29.00
2023-06-19T12:56:20.158Z,29.20
2023-06-19T12:58:47.749Z,29.20
2023-06-19T13:01:15.438Z,29.20
2023-06-19T13:03:42.920Z,29.30
2023-06-19T13:06:10.503Z,29.40
2023-06-19T13:08:38.081Z,29.50
2023-06-19T13:11:05.657Z,29.50
2023-06-19T13:13:33.269Z,29.60
2023-06-19T13:16:01.667Z,29.60
2023-06-19T13:18:29.178Z,29.60
2023-06-19T13:20:56.781Z,29.60
2023-06-19T13:23:24.403Z,29.60
2023-06-19T13:25:52.166Z,29.60
2023-06-19T13:28:19.747Z,29.60
2023-06-19T13:30:48.075Z,29.80
2023-06-19T13:33:15.690Z,29.80
2023-06-19T13:35:43.280Z,29.80
2023-06-19T13:38:10.873Z,29.90
2023-06-19T13:40:38.434Z,30.10
2023-06-19T13:43:06.063Z,30.20
2023-06-19T13:45:33.637Z,30.20
2023-06-19T13:48:01.285Z,30.10
2023-06-19T13:50:28.825Z,30.10
2023-06-19T13:52:56.395Z,30.20
2023-06-19T13:55:23.964Z,30.30
2023-06-19T13:57:51.604Z,30.30
2023-06-19T14:00:19.176Z,30.50
2023-06-19T14:02:46.914Z,30.60
2023-06-19T14:05:16.847Z,30.70
2023-06-19T14:07:44.404Z,30.80
2023-06-19T14:10:11.984Z,30.90
2023-06-19T14:12:39.603Z,31.00
2023-06-19T14:15:07.431Z,31.00
2023-06-19T14:17:34.968Z,31.10
2023-06-19T14:20:03.363Z,31.20
2023-06-19T14:22:30.906Z,31.20
2023-06-19T14:24:58.473Z,31.20
2023-06-19T14:27:26.154Z,31.20
2023-06-19T14:29:53.726Z,31.30
2023-06-19T14:32:21.337Z,31.40
2023-06-19T14:34:48.963Z,31.60
2023-06-19T14:37:16.550Z,31.70
2023-06-19T14:39:44.118Z,31.70
2023-06-19T14:42:11.724Z,31.80
2023-06-19T14:44:39.303Z,31.80
2023-06-19T14:47:07.640Z,31.80
2023-06-19T14:49:35.433Z,31.80
2023-06-19T14:52:03.013Z,31.90
2023-06-19T14:54:31.372Z,32.10
2023-06-19T14:56:58.965Z,32.10
2023-06-19T14:59:26.548Z,32.10
2023-06-19T15:01:54.191Z,32.20
2023-06-19T15:04:21.769Z,32.30
2023-06-19T15:06:49.327Z,32.20
2023-06-19T15:09:16.893Z,32.20
2023-06-19T15:11:44.515Z,32.30
2023-06-19T15:14:12.135Z,32.40
2023-06-19T15:16:39.975Z,32.40
2023-06-19T15:19:07.771Z,32.60
2023-06-19T15:21:35.233Z,32.60
2023-06-19T15:24:02.850Z,32.80
2023-06-19T15:26:30.444Z,32.80
2023-06-19T15:28:58.042Z,32.90
2023-06-19T15:31:25.617Z,33.00
2023-06-19T15:33:53.298Z,33.00
2023-06-19T15:36:21.609Z,33.10
2023-06-19T15:38:49.173Z,33.10
2023-06-19T15:41:16.821Z,33.20
2023-06-19T15:43:44.370Z,33.20
2023-06-19T15:46:12.103Z,33.40
2023-06-19T15:48:39.595Z,33.50
2023-06-19T15:51:07.182Z,33.60
2023-06-19T15:53:35.529Z,33.80
2023-06-19T15:56:03.159Z,33.80
2023-06-19T15:58:30.704Z,33.90
2023-06-19T16:00:58.280Z,33.90
2023-06-19T16:03:26.119Z,34.00
2023-06-19T16:08:21.105Z,34.20
2023-06-19T16:10:48.758Z,34.20
2023-06-19T16:13:16.338Z,34.40
2023-06-19T16:15:44.780Z,34.60
2023-06-19T16:18:12.341Z,34.60
2023-06-19T16:20:39.928Z,34.50
2023-06-19T16:23:07.506Z,34.50
2023-06-19T16:25:35.910Z,34.40
2023-06-19T16:28:03.478Z,34.40
2023-06-19T16:30:31.066Z,34.20
2023-06-19T16:32:58.777Z,34.00
2023-06-19T16:35:26.273Z,33.80
2023-06-19T16:37:56.260Z,33.60
2023-06-19T16:40:24.089Z,33.40
2023-06-19T16:42:51.450Z,33.20
2023-06-19T16:45:19.793Z,33.10
2023-06-19T16:47:47.461Z,33.10
2023-06-19T16:50:14.983Z,33.00
2023-06-19T16:52:42.556Z,32.80
2023-06-19T16:55:10.343Z,32.70
2023-06-19T16:57:37.914Z,32.60
2023-06-19T17:00:05.593Z,32.50
2023-06-19T17:02:33.314Z,32.40
2023-06-19T17:05:00.780Z,32.30
2023-06-19T17:07:28.351Z,32.20
2023-06-19T17:09:55.970Z,32.20
2023-06-19T17:12:23.545Z,32.00
2023-06-19T17:14:51.120Z,31.90
2023-06-19T17:17:18.752Z,31.70
2023-06-19T17:19:46.321Z,31.60
2023-06-19T17:22:13.893Z,31.60
2023-06-19T17:24:41.632Z,31.40
2023-06-19T17:27:09.131Z,31.20
2023-06-19T17:29:36.710Z,31.20
2023-06-19T17:32:05.138Z,30.90
2023-06-19T17:34:32.826Z,30.90
2023-06-19T17:37:00.305Z,30.80
2023-06-19T17:39:27.907Z,30.60
2023-06-19T17:41:55.493Z,30.40
2023-06-19T17:44:23.066Z,30.30
2023-06-19T17:46:51.929Z,30.10
2023-06-19T17:49:18.269Z,29.90
2023-06-19T17:51:45.851Z,29.80
2023-06-19T17:54:13.506Z,29.60
2023-06-19T17:56:41.078Z,29.50
2023-06-19T17:59:08.642Z,29.30
2023-06-19T18:01:37.050Z,29.00
2023-06-19T18:04:05.446Z,28.90
2023-06-19T18:06:33.769Z,28.80
2023-06-19T18:09:02.757Z,28.70
2023-06-19T18:11:28.941Z,28.70
2023-06-19T18:13:56.523Z,28.80
2023-06-19T18:16:24.186Z,28.70
2023-06-19T18:18:52.495Z,28.70
2023-06-19T18:21:20.064Z,28.70
2023-06-19T18:23:48.530Z,28.60
2023-06-19T18:26:15.289Z,28.70
2023-06-19T18:28:43.654Z,28.30
2023-06-19T18:31:11.235Z,28.30
2023-06-19T18:33:38.832Z,28.20
2023-06-19T18:36:06.433Z,28.30
2023-06-19T18:38:34.087Z,28.10
2023-06-19T18:41:01.622Z,28.00
2023-06-19T18:43:29.225Z,27.90
2023-06-19T18:45:56.843Z,27.80
2023-06-19T18:48:24.405Z,27.70
2023-06-19T18:50:52.026Z,27.80
2023-06-19T18:53:19.639Z,27.70
2023-06-19T18:55:47.206Z,27.70
2023-06-19T18:58:15.560Z,27.40
2023-06-19T19:00:43.233Z,27.40
2023-06-19T19:03:10.881Z,27.30
2023-06-19T19:05:38.338Z,27.10
2023-06-19T19:08:06.005Z,27.00
2023-06-19T19:10:33.560Z,26.90
2023-06-19T19:13:01.132Z,26.80
2023-06-19T19:15:28.758Z,26.70
2023-06-19T19:17:56.385Z,26.60
2023-06-19T19:20:24.094Z,26.70
2023-06-19T19:22:51.531Z,26.60
2023-06-19T19:25:19.104Z,26.50
2023-06-19T19:27:46.680Z,26.40
2023-06-19T19:30:14.308Z,26.40
2023-06-19T19:32:41.921Z,26.30
2023-06-19T19:35:09.476Z,26.30
2023-06-19T19:37:37.100Z,26.20
2023-06-19T19:40:04.738Z,26.10
2023-06-19T19:42:32.250Z,26.10
2023-06-19T19:44:59.872Z,26.10
2023-06-19T19:47:27.462Z,26.00
2023-06-19T19:49:55.230Z,26.10
2023-06-19T19:52:25.413Z,26.00
2023-06-19T19:54:50.407Z,25.90
2023-06-19T19:57:17.990Z,25.90
2023-06-19T19:59:45.631Z,25.80
2023-06-19T20:02:13.958Z,25.60
2023-06-19T20:04:41.533Z,25.60
2023-06-19T20:07:09.928Z,25.70
2023-06-19T20:09:37.502Z,25.70
2023-06-19T20:12:19.884Z,25.60
2023-06-19T20:14:32.813Z,25.50
2023-06-19T20:17:00.392Z,25.40
2023-06-19T20:19:27.968Z,25.30
2023-06-19T20:21:55.565Z,25.20
2023-06-19T20:24:23.948Z,25.00
2023-06-19T20:26:51.554Z,25.00
2023-06-19T20:29:19.177Z,24.90
2023-06-19T20:31:47.525Z,24.90
2023-06-19T20:34:15.100Z,24.80
2023-06-19T20:36:42.748Z,24.70
2023-06-19T20:39:10.325Z,24.50
2023-06-19T20:41:38.662Z,24.40
2023-06-19T20:44:06.282Z,24.40
2023-06-19T20:46:34.615Z,24.10
2023-06-19T20:49:02.337Z,24.10
2023-06-19T20:51:30.069Z,23.90
2023-06-19T20:53:57.643Z,23.80
2023-06-19T20:56:25.979Z,23.50
2023-06-19T20:58:53.624Z,23.50
2023-06-19T21:01:21.202Z,23.40
2023-06-19T21:03:48.799Z,23.30
2023-06-19T21:06:16.418Z,23.20
2023-06-19T21:08:44.004Z,23.40
2023-06-19T21:11:11.575Z,23.50
2023-06-19T21:13:39.986Z,23.40
2023-06-19T21:16:07.597Z,23.40
2023-06-19T21:18:35.176Z,23.20
2023-06-19T21:21:03.588Z,23.20
2023-06-19T21:23:31.182Z,23.10
2023-06-19T21:25:58.730Z,23.00
2023-06-19T21:28:26.378Z,22.90
2023-06-19T21:30:54.705Z,22.60
2023-06-19T21:33:24.711Z,22.60
2023-06-19T21:35:49.901Z,22.50
2023-06-19T21:38:17.469Z,22.50
2023-06-19T21:40:45.046Z,22.30
2023-06-19T21:43:13.458Z,22.30
2023-06-19T21:45:41.044Z,22.30
2023-06-19T21:48:08.678Z,22.20
2023-06-19T21:50:36.205Z,22.00
2023-06-19T21:53:04.545Z,21.70
2023-06-19T21:55:32.117Z,21.70
2023-06-19T21:58:00.791Z,21.50
2023-06-19T22:00:28.377Z,21.60
2023-06-19T22:02:55.902Z,21.30
2023-06-19T22:05:23.456Z,21.20
2023-06-19T22:07:51.003Z,21.20
2023-06-19T22:10:18.603Z,21.00
2023-06-19T22:12:46.205Z,20.90
2023-06-19T22:15:13.831Z,20.90
2023-06-19T22:17:41.395Z,20.80
2023-06-19T22:20:09.048Z,20.70
2023-06-19T22:22:36.634Z,20.70
2023-06-19T22:25:04.973Z,20.60
2023-06-19T22:27:32.593Z,20.60
2023-06-19T22:30:00.173Z,20.60
2023-06-19T22:32:27.758Z,20.60
2023-06-19T22:34:55.384Z,20.50
2023-06-19T22:37:22.958Z,20.50
2023-06-19T22:39:50.536Z,20.50
2023-06-19T22:42:18.149Z,20.50
2023-06-19T22:44:45.714Z,20.50
2023-06-19T22:47:13.337Z,20.70
2023-06-19T22:49:44.299Z,20.60
2023-06-19T22:52:11.876Z,20.60
2023-06-19T22:54:39.450Z,20.60
2023-06-19T22:57:07.080Z,20.50
2023-06-19T22:59:35.468Z,20.50
2023-06-19T23:02:03.007Z,20.50
2023-06-19T23:04:30.609Z,20.40
2023-06-19T23:06:58.192Z,20.40
2023-06-19T23:09:25.767Z,20.40
2023-06-19T23:11:53.419Z,20.40
2023-06-19T23:14:21.009Z,20.40
2023-06-19T23:16:49.348Z,20.40
2023-06-19T23:19:16.959Z,20.40
2023-06-19T23:21:44.536Z,20.40
2023-06-19T23:24:12.171Z,20.60
2023-06-19T23:26:39.725Z,20.60
2023-06-19T23:29:07.295Z,20.60
2023-06-19T23:31:34.882Z,20.50
2023-06-19T23:34:02.506Z,20.50
2023-06-19T23:36:30.848Z,20.50
2023-06-19T23:38:58.444Z,20.50
2023-06-19T23:41:26.197Z,20.50
2023-06-19T23:43:53.783Z,20.40
2023-06-19T23:46:21.388Z,20.40
2023-06-19T23:48:49.053Z,20.60
2023-06-19T23:51:16.640Z,20.60
2023-06-19T23:53:44.978Z,20.70
2023-06-19T23:56:12.600Z,20.70
2023-06-19T23:58:40.168Z,20.60
